sensor_id;sensor_type;location;lat;lon;timestamp;temperature;humidity
16140;DHT22;8175;49.326;12.690;2023-03-14T00:02:07;9.10;99.90
16140;DHT22;8175;49.326;12.690;2023-03-14T00:04:32;9.00;99.90
16140;DHT22;8175;49.326;12.690;2023-03-14T00:06:58;9.00;99.90
16140;DHT22;8175;49.326;12.690;2023-03-14T00:09:23;9.00;99.90
16140;DHT22;8175;49.326;12.690;2023-03-14T00:11:49;8.90;99.90
16140;DHT22;8175;49.326;12.690;2023-03-14T00:14:15;8.80;99.90
16140;DHT22;8175;49.326;12.690;2023-03-14T00:16:42;8.80;99.90
16140;DHT22;8175;49.326;12.690;2023-03-14T00:19:10;8.80;99.90
16140;DHT22;8175;49.326;12.690;2023-03-14T00:21:36;8.70;99.90
16140;DHT22;8175;49.326;12.690;2023-03-14T00:24:02;8.60;99.90
16140;DHT22;8175;49.326;12.690;2023-03-14T00:26:27;8.50;99.90
16140;DHT22;8175;49.326;12.690;2023-03-14T00:28:54;8.50;99.90
16140;DHT22;8175;49.326;12.690;2023-03-14T00:31:19;8.50;99.90
16140;DHT22;8175;49.326;12.690;2023-03-14T00:33:45;8.40;99.90
16140;DHT22;8175;49.326;12.690;2023-03-14T00:36:16;8.30;99.90
16140;DHT22;8175;49.326;12.690;2023-03-14T00:38:45;8.20;99.90
16140;DHT22;8175;49.326;12.690;2023-03-14T00:41:14;8.50;99.90
16140;DHT22;8175;49.326;12.690;2023-03-14T00:43:39;8.40;99.90
16140;DHT22;8175;49.326;12.690;2023-03-14T00:46:05;8.40;99.90
16140;DHT22;8175;49.326;12.690;2023-03-14T00:48:32;8.40;99.90
16140;DHT22;8175;49.326;12.690;2023-03-14T00:50:57;8.50;99.90
16140;DHT22;8175;49.326;12.690;2023-03-14T00:53:23;8.40;99.90
16140;DHT22;8175;49.326;12.690;2023-03-14T00:55:49;8.50;99.90
16140;DHT22;8175;49.326;12.690;2023-03-14T00:58:16;8.50;99.90
16140;DHT22;8175;49.326;12.690;2023-03-14T01:00:43;8.60;99.90
16140;DHT22;8175;49.326;12.690;2023-03-14T01:03:10;8.60;99.90
16140;DHT22;8175;49.326;12.690;2023-03-14T01:05:36;8.70;99.90
16140;DHT22;8175;49.326;12.690;2023-03-14T01:08:03;8.80;99.90
16140;DHT22;8175;49.326;12.690;2023-03-14T01:10:29;8.80;99.90
16140;DHT22;8175;49.326;12.690;2023-03-14T01:12:55;8.70;99.90
16140;DHT22;8175;49.326;12.690;2023-03-14T01:15:20;8.80;99.90
16140;DHT22;8175;49.326;12.690;2023-03-14T01:17:46;8.80;99.90
16140;DHT22;8175;49.326;12.690;2023-03-14T01:20:14;8.70;99.90
16140;DHT22;8175;49.326;12.690;2023-03-14T01:22:41;8.80;99.90
16140;DHT22;8175;49.326;12.690;2023-03-14T01:25:09;8.90;99.90
16140;DHT22;8175;49.326;12.690;2023-03-14T01:27:35;8.80;99.90
16140;DHT22;8175;49.326;12.690;2023-03-14T01:30:01;8.80;99.90
16140;DHT22;8175;49.326;12.690;2023-03-14T01:32:27;8.80;99.90
16140;DHT22;8175;49.326;12.690;2023-03-14T01:34:53;8.80;99.90
16140;DHT22;8175;49.326;12.690;2023-03-14T01:37:18;8.80;99.90
16140;DHT22;8175;49.326;12.690;2023-03-14T01:39:46;8.80;99.90
16140;DHT22;8175;49.326;12.690;2023-03-14T01:42:12;8.80;99.90
16140;DHT22;8175;49.326;12.690;2023-03-14T01:44:59;8.70;99.90
16140;DHT22;8175;49.326;12.690;2023-03-14T01:47:25;8.70;99.90
16140;DHT22;8175;49.326;12.690;2023-03-14T01:50:09;8.70;99.90
16140;DHT22;8175;49.326;12.690;2023-03-14T01:52:43;8.70;99.90
16140;DHT22;8175;49.326;12.690;2023-03-14T01:55:13;8.70;99.90
16140;DHT22;8175;49.326;12.690;2023-03-14T01:57:45;8.70;99.90
16140;DHT22;8175;49.326;12.690;2023-03-14T02:00:18;8.70;99.90
16140;DHT22;8175;49.326;12.690;2023-03-14T02:02:49;8.70;99.90
16140;DHT22;8175;49.326;12.690;2023-03-14T02:05:19;8.70;99.90
16140;DHT22;8175;49.326;12.690;2023-03-14T02:07:52;8.60;99.90
16140;DHT22;8175;49.326;12.690;2023-03-14T02:10:21;8.60;99.90
16140;DHT22;8175;49.326;12.690;2023-03-14T02:12:48;8.60;99.90
16140;DHT22;8175;49.326;12.690;2023-03-14T02:15:14;8.60;99.90
16140;DHT22;8175;49.326;12.690;2023-03-14T02:17:43;8.50;99.90
16140;DHT22;8175;49.326;12.690;2023-03-14T02:22:41;8.40;99.90
16140;DHT22;8175;49.326;12.690;2023-03-14T02:27:50;8.40;99.90
16140;DHT22;8175;49.326;12.690;2023-03-14T02:30:21;8.40;99.90
16140;DHT22;8175;49.326;12.690;2023-03-14T02:32:56;8.40;99.90
16140;DHT22;8175;49.326;12.690;2023-03-14T02:35:25;8.40;99.90
16140;DHT22;8175;49.326;12.690;2023-03-14T02:40:19;8.40;99.90
16140;DHT22;8175;49.326;12.690;2023-03-14T02:42:45;8.40;99.90
16140;DHT22;8175;49.326;12.690;2023-03-14T02:47:39;8.30;99.90
16140;DHT22;8175;49.326;12.690;2023-03-14T02:50:14;8.40;99.90
16140;DHT22;8175;49.326;12.690;2023-03-14T02:52:41;8.40;99.90
16140;DHT22;8175;49.326;12.690;2023-03-14T02:55:07;8.40;99.90
16140;DHT22;8175;49.326;12.690;2023-03-14T02:57:33;8.30;99.90
16140;DHT22;8175;49.326;12.690;2023-03-14T02:59:59;8.30;99.90
16140;DHT22;8175;49.326;12.690;2023-03-14T03:02:26;8.20;99.90
16140;DHT22;8175;49.326;12.690;2023-03-14T03:04:51;8.20;99.90
16140;DHT22;8175;49.326;12.690;2023-03-14T03:07:17;8.20;99.90
16140;DHT22;8175;49.326;12.690;2023-03-14T03:09:43;8.20;99.90
16140;DHT22;8175;49.326;12.690;2023-03-14T03:12:08;8.20;99.90
16140;DHT22;8175;49.326;12.690;2023-03-14T03:14:34;8.30;99.90
16140;DHT22;8175;49.326;12.690;2023-03-14T03:16:59;8.20;99.90
16140;DHT22;8175;49.326;12.690;2023-03-14T03:19:25;8.20;99.90
16140;DHT22;8175;49.326;12.690;2023-03-14T03:21:51;8.20;99.90
16140;DHT22;8175;49.326;12.690;2023-03-14T03:24:16;8.20;99.90
16140;DHT22;8175;49.326;12.690;2023-03-14T03:26:42;8.10;99.90
16140;DHT22;8175;49.326;12.690;2023-03-14T03:29:07;8.20;99.90
16140;DHT22;8175;49.326;12.690;2023-03-14T03:31:33;8.20;99.90
16140;DHT22;8175;49.326;12.690;2023-03-14T03:33:59;8.10;99.90
16140;DHT22;8175;49.326;12.690;2023-03-14T03:36:25;8.10;99.90
16140;DHT22;8175;49.326;12.690;2023-03-14T03:38:51;8.10;99.90
16140;DHT22;8175;49.326;12.690;2023-03-14T03:41:17;8.10;99.90
16140;DHT22;8175;49.326;12.690;2023-03-14T03:43:42;8.10;99.90
16140;DHT22;8175;49.326;12.690;2023-03-14T03:46:08;8.10;99.90
16140;DHT22;8175;49.326;12.690;2023-03-14T03:48:35;8.10;99.90
16140;DHT22;8175;49.326;12.690;2023-03-14T03:51:00;8.10;99.90
16140;DHT22;8175;49.326;12.690;2023-03-14T03:53:27;8.10;99.90
16140;DHT22;8175;49.326;12.690;2023-03-14T03:55:53;8.10;99.90
16140;DHT22;8175;49.326;12.690;2023-03-14T03:58:18;8.10;99.90
16140;DHT22;8175;49.326;12.690;2023-03-14T04:00:44;8.00;99.90
16140;DHT22;8175;49.326;12.690;2023-03-14T04:03:10;8.00;99.90
16140;DHT22;8175;49.326;12.690;2023-03-14T04:05:36;8.00;99.90
16140;DHT22;8175;49.326;12.690;2023-03-14T04:08:02;8.00;99.90
16140;DHT22;8175;49.326;12.690;2023-03-14T04:10:28;8.00;99.90
16140;DHT22;8175;49.326;12.690;2023-03-14T04:12:53;8.00;99.90
16140;DHT22;8175;49.326;12.690;2023-03-14T04:15:19;8.00;99.90
16140;DHT22;8175;49.326;12.690;2023-03-14T04:17:45;8.00;99.90
16140;DHT22;8175;49.326;12.690;2023-03-14T04:20:11;7.90;99.90
16140;DHT22;8175;49.326;12.690;2023-03-14T04:22:38;7.90;99.90
16140;DHT22;8175;49.326;12.690;2023-03-14T04:25:05;7.80;99.90
16140;DHT22;8175;49.326;12.690;2023-03-14T04:27:31;7.80;99.90
16140;DHT22;8175;49.326;12.690;2023-03-14T04:29:56;7.80;99.90
16140;DHT22;8175;49.326;12.690;2023-03-14T04:32:22;7.80;99.90
16140;DHT22;8175;49.326;12.690;2023-03-14T04:34:48;7.80;99.90
16140;DHT22;8175;49.326;12.690;2023-03-14T04:37:13;7.80;99.90
16140;DHT22;8175;49.326;12.690;2023-03-14T04:39:39;7.80;99.90
16140;DHT22;8175;49.326;12.690;2023-03-14T04:42:05;7.80;99.90
16140;DHT22;8175;49.326;12.690;2023-03-14T04:44:31;7.70;99.90
16140;DHT22;8175;49.326;12.690;2023-03-14T04:46:56;7.80;99.90
16140;DHT22;8175;49.326;12.690;2023-03-14T04:49:23;7.70;99.90
16140;DHT22;8175;49.326;12.690;2023-03-14T04:51:48;7.70;99.90
16140;DHT22;8175;49.326;12.690;2023-03-14T04:54:16;7.60;99.90
16140;DHT22;8175;49.326;12.690;2023-03-14T04:56:42;7.60;99.90
16140;DHT22;8175;49.326;12.690;2023-03-14T04:59:08;7.60;99.90
16140;DHT22;8175;49.326;12.690;2023-03-14T05:01:34;7.60;99.90
16140;DHT22;8175;49.326;12.690;2023-03-14T05:04:00;7.60;99.90
16140;DHT22;8175;49.326;12.690;2023-03-14T05:06:25;7.60;99.90
16140;DHT22;8175;49.326;12.690;2023-03-14T05:08:51;7.50;99.90
16140;DHT22;8175;49.326;12.690;2023-03-14T05:11:16;7.50;99.90
16140;DHT22;8175;49.326;12.690;2023-03-14T05:13:43;7.50;99.90
16140;DHT22;8175;49.326;12.690;2023-03-14T05:16:10;7.50;99.90
16140;DHT22;8175;49.326;12.690;2023-03-14T05:18:36;7.50;99.90
16140;DHT22;8175;49.326;12.690;2023-03-14T05:21:03;7.50;99.90
16140;DHT22;8175;49.326;12.690;2023-03-14T05:23:29;7.50;99.90
16140;DHT22;8175;49.326;12.690;2023-03-14T05:25:55;7.50;99.90
16140;DHT22;8175;49.326;12.690;2023-03-14T05:28:21;7.60;99.90
16140;DHT22;8175;49.326;12.690;2023-03-14T05:30:47;7.60;99.90
16140;DHT22;8175;49.326;12.690;2023-03-14T05:33:12;7.60;99.90
16140;DHT22;8175;49.326;12.690;2023-03-14T05:35:38;7.60;99.90
16140;DHT22;8175;49.326;12.690;2023-03-14T05:38:04;7.60;99.90
16140;DHT22;8175;49.326;12.690;2023-03-14T05:40:30;7.60;99.90
16140;DHT22;8175;49.326;12.690;2023-03-14T05:42:55;7.70;99.90
16140;DHT22;8175;49.326;12.690;2023-03-14T05:45:21;7.60;99.90
16140;DHT22;8175;49.326;12.690;2023-03-14T05:47:46;7.60;99.90
16140;DHT22;8175;49.326;12.690;2023-03-14T05:50:12;7.60;99.90
16140;DHT22;8175;49.326;12.690;2023-03-14T05:52:38;7.60;99.90
16140;DHT22;8175;49.326;12.690;2023-03-14T05:55:04;7.70;99.90
16140;DHT22;8175;49.326;12.690;2023-03-14T05:57:30;7.70;99.90
16140;DHT22;8175;49.326;12.690;2023-03-14T05:59:55;7.70;99.90
16140;DHT22;8175;49.326;12.690;2023-03-14T06:02:21;7.80;99.90
16140;DHT22;8175;49.326;12.690;2023-03-14T06:04:47;7.80;99.90
16140;DHT22;8175;49.326;12.690;2023-03-14T06:07:12;7.80;99.90
16140;DHT22;8175;49.326;12.690;2023-03-14T06:09:38;7.80;99.90
16140;DHT22;8175;49.326;12.690;2023-03-14T06:12:05;7.90;99.90
16140;DHT22;8175;49.326;12.690;2023-03-14T06:14:31;7.90;99.90
16140;DHT22;8175;49.326;12.690;2023-03-14T06:16:57;7.90;99.90
16140;DHT22;8175;49.326;12.690;2023-03-14T06:19:25;7.90;99.90
16140;DHT22;8175;49.326;12.690;2023-03-14T06:21:51;7.90;99.90
16140;DHT22;8175;49.326;12.690;2023-03-14T06:24:17;7.90;99.90
16140;DHT22;8175;49.326;12.690;2023-03-14T06:26:42;7.90;99.90
16140;DHT22;8175;49.326;12.690;2023-03-14T06:29:08;7.90;99.90
16140;DHT22;8175;49.326;12.690;2023-03-14T06:31:34;7.90;99.90
16140;DHT22;8175;49.326;12.690;2023-03-14T06:34:00;7.90;99.90
16140;DHT22;8175;49.326;12.690;2023-03-14T06:36:25;8.00;99.90
16140;DHT22;8175;49.326;12.690;2023-03-14T06:38:51;8.00;99.90
16140;DHT22;8175;49.326;12.690;2023-03-14T06:41:17;8.00;99.90
16140;DHT22;8175;49.326;12.690;2023-03-14T06:43:42;8.10;99.90
16140;DHT22;8175;49.326;12.690;2023-03-14T06:46:08;8.20;99.90
16140;DHT22;8175;49.326;12.690;2023-03-14T06:48:33;8.20;99.90
16140;DHT22;8175;49.326;12.690;2023-03-14T06:50:59;8.20;99.90
16140;DHT22;8175;49.326;12.690;2023-03-14T06:53:25;8.20;99.90
16140;DHT22;8175;49.326;12.690;2023-03-14T06:55:51;8.20;99.90
16140;DHT22;8175;49.326;12.690;2023-03-14T06:58:17;8.20;99.90
16140;DHT22;8175;49.326;12.690;2023-03-14T07:00:43;8.20;99.90
16140;DHT22;8175;49.326;12.690;2023-03-14T07:03:10;8.30;99.90
16140;DHT22;8175;49.326;12.690;2023-03-14T07:05:35;8.30;99.90
16140;DHT22;8175;49.326;12.690;2023-03-14T07:08:01;8.20;99.90
16140;DHT22;8175;49.326;12.690;2023-03-14T07:10:27;8.20;99.90
16140;DHT22;8175;49.326;12.690;2023-03-14T07:12:52;8.20;99.90
16140;DHT22;8175;49.326;12.690;2023-03-14T07:15:19;8.20;99.90
16140;DHT22;8175;49.326;12.690;2023-03-14T07:17:46;8.20;99.90
16140;DHT22;8175;49.326;12.690;2023-03-14T07:20:13;8.30;99.90
16140;DHT22;8175;49.326;12.690;2023-03-14T07:22:39;8.30;99.90
16140;DHT22;8175;49.326;12.690;2023-03-14T07:25:05;8.30;99.90
16140;DHT22;8175;49.326;12.690;2023-03-14T07:27:31;8.30;99.90
16140;DHT22;8175;49.326;12.690;2023-03-14T07:29:56;8.40;99.90
16140;DHT22;8175;49.326;12.690;2023-03-14T07:32:22;8.40;99.90
16140;DHT22;8175;49.326;12.690;2023-03-14T07:34:47;8.40;99.90
16140;DHT22;8175;49.326;12.690;2023-03-14T07:37:13;8.40;99.90
16140;DHT22;8175;49.326;12.690;2023-03-14T07:39:39;8.50;99.90
16140;DHT22;8175;49.326;12.690;2023-03-14T07:42:04;8.50;99.90
16140;DHT22;8175;49.326;12.690;2023-03-14T07:44:30;8.50;99.90
16140;DHT22;8175;49.326;12.690;2023-03-14T07:46:56;8.50;99.90
16140;DHT22;8175;49.326;12.690;2023-03-14T07:49:21;8.50;99.90
16140;DHT22;8175;49.326;12.690;2023-03-14T07:51:48;8.50;99.90
16140;DHT22;8175;49.326;12.690;2023-03-14T07:54:14;8.50;99.90
16140;DHT22;8175;49.326;12.690;2023-03-14T07:56:39;8.50;99.90
16140;DHT22;8175;49.326;12.690;2023-03-14T07:59:05;8.60;99.90
16140;DHT22;8175;49.326;12.690;2023-03-14T08:01:31;8.70;99.90
16140;DHT22;8175;49.326;12.690;2023-03-14T08:03:57;8.70;99.90
16140;DHT22;8175;49.326;12.690;2023-03-14T08:06:22;8.70;99.90
16140;DHT22;8175;49.326;12.690;2023-03-14T08:08:48;8.70;99.90
16140;DHT22;8175;49.326;12.690;2023-03-14T08:11:13;8.70;99.90
16140;DHT22;8175;49.326;12.690;2023-03-14T08:13:39;8.70;99.90
16140;DHT22;8175;49.326;12.690;2023-03-14T08:16:05;8.70;99.90
16140;DHT22;8175;49.326;12.690;2023-03-14T08:18:31;8.80;99.90
16140;DHT22;8175;49.326;12.690;2023-03-14T08:20:57;8.80;99.90
16140;DHT22;8175;49.326;12.690;2023-03-14T08:23:23;8.80;99.90
16140;DHT22;8175;49.326;12.690;2023-03-14T08:25:50;8.80;99.90
16140;DHT22;8175;49.326;12.690;2023-03-14T08:28:17;8.90;99.90
16140;DHT22;8175;49.326;12.690;2023-03-14T08:30:43;9.00;99.90
16140;DHT22;8175;49.326;12.690;2023-03-14T08:33:09;9.00;99.90
16140;DHT22;8175;49.326;12.690;2023-03-14T08:35:34;9.00;99.90
16140;DHT22;8175;49.326;12.690;2023-03-14T08:38:00;9.10;99.90
16140;DHT22;8175;49.326;12.690;2023-03-14T08:40:26;9.10;99.90
16140;DHT22;8175;49.326;12.690;2023-03-14T08:42:52;9.10;99.90
16140;DHT22;8175;49.326;12.690;2023-03-14T08:45:17;9.20;99.90
16140;DHT22;8175;49.326;12.690;2023-03-14T08:47:44;9.40;99.90
16140;DHT22;8175;49.326;12.690;2023-03-14T08:50:11;9.40;99.90
16140;DHT22;8175;49.326;12.690;2023-03-14T08:52:36;9.50;99.90
16140;DHT22;8175;49.326;12.690;2023-03-14T08:55:08;9.60;99.90
16140;DHT22;8175;49.326;12.690;2023-03-14T08:57:34;9.80;99.90
16140;DHT22;8175;49.326;12.690;2023-03-14T08:59:59;9.70;99.90
16140;DHT22;8175;49.326;12.690;2023-03-14T09:02:26;9.80;99.90
16140;DHT22;8175;49.326;12.690;2023-03-14T09:04:52;9.90;99.90
16140;DHT22;8175;49.326;12.690;2023-03-14T09:07:18;9.70;99.90
16140;DHT22;8175;49.326;12.690;2023-03-14T09:09:44;9.50;99.90
16140;DHT22;8175;49.326;12.690;2023-03-14T09:12:10;9.50;99.90
16140;DHT22;8175;49.326;12.690;2023-03-14T09:14:36;9.60;99.90
16140;DHT22;8175;49.326;12.690;2023-03-14T09:17:02;9.50;99.90
16140;DHT22;8175;49.326;12.690;2023-03-14T09:19:28;9.40;99.90
16140;DHT22;8175;49.326;12.690;2023-03-14T09:21:54;9.40;99.90
16140;DHT22;8175;49.326;12.690;2023-03-14T09:24:20;9.60;99.90
16140;DHT22;8175;49.326;12.690;2023-03-14T09:26:46;9.90;99.90
16140;DHT22;8175;49.326;12.690;2023-03-14T09:29:12;10.10;99.90
16140;DHT22;8175;49.326;12.690;2023-03-14T09:31:37;10.50;99.90
16140;DHT22;8175;49.326;12.690;2023-03-14T09:34:03;10.80;99.90
16140;DHT22;8175;49.326;12.690;2023-03-14T09:36:29;11.00;99.90
16140;DHT22;8175;49.326;12.690;2023-03-14T09:38:55;10.90;99.90
16140;DHT22;8175;49.326;12.690;2023-03-14T09:41:24;10.90;99.90
16140;DHT22;8175;49.326;12.690;2023-03-14T09:44:42;10.90;99.90
16140;DHT22;8175;49.326;12.690;2023-03-14T09:46:45;10.70;99.90
16140;DHT22;8175;49.326;12.690;2023-03-14T09:49:27;10.70;99.90
16140;DHT22;8175;49.326;12.690;2023-03-14T09:51:55;10.60;99.90
16140;DHT22;8175;49.326;12.690;2023-03-14T09:54:58;10.80;99.90
16140;DHT22;8175;49.326;12.690;2023-03-14T09:57:23;10.90;99.90
16140;DHT22;8175;49.326;12.690;2023-03-14T09:59:50;11.30;99.90
16140;DHT22;8175;49.326;12.690;2023-03-14T10:02:19;11.40;99.90
16140;DHT22;8175;49.326;12.690;2023-03-14T10:04:46;11.40;99.90
16140;DHT22;8175;49.326;12.690;2023-03-14T10:07:18;11.70;99.90
16140;DHT22;8175;49.326;12.690;2023-03-14T10:09:51;12.00;99.90
16140;DHT22;8175;49.326;12.690;2023-03-14T10:12:18;12.00;99.90
16140;DHT22;8175;49.326;12.690;2023-03-14T10:14:50;11.60;99.90
16140;DHT22;8175;49.326;12.690;2023-03-14T10:17:18;11.20;99.90
16140;DHT22;8175;49.326;12.690;2023-03-14T10:22:19;11.30;99.90
16140;DHT22;8175;49.326;12.690;2023-03-14T10:24:46;11.40;99.90
16140;DHT22;8175;49.326;12.690;2023-03-14T10:27:27;11.30;99.90
16140;DHT22;8175;49.326;12.690;2023-03-14T10:30:02;11.10;99.90
16140;DHT22;8175;49.326;12.690;2023-03-14T10:32:37;11.20;99.90
16140;DHT22;8175;49.326;12.690;2023-03-14T10:38:00;11.20;99.90
16140;DHT22;8175;49.326;12.690;2023-03-14T10:40:39;10.90;99.90
16140;DHT22;8175;49.326;12.690;2023-03-14T10:43:07;10.90;99.90
16140;DHT22;8175;49.326;12.690;2023-03-14T10:45:41;10.90;99.90
16140;DHT22;8175;49.326;12.690;2023-03-14T10:51:04;11.30;99.90
16140;DHT22;8175;49.326;12.690;2023-03-14T10:54:00;11.40;99.90
16140;DHT22;8175;49.326;12.690;2023-03-14T10:56:28;11.70;99.90
16140;DHT22;8175;49.326;12.690;2023-03-14T10:58:58;12.10;99.90
16140;DHT22;8175;49.326;12.690;2023-03-14T11:12:41;11.20;99.90
16140;DHT22;8175;49.326;12.690;2023-03-14T11:15:17;12.50;99.90
16140;DHT22;8175;49.326;12.690;2023-03-14T11:23:26;13.30;99.90
16140;DHT22;8175;49.326;12.690;2023-03-14T11:29:08;13.60;99.90
16140;DHT22;8175;49.326;12.690;2023-03-14T11:31:35;12.40;99.90
16140;DHT22;8175;49.326;12.690;2023-03-14T11:34:12;11.50;99.90
16140;DHT22;8175;49.326;12.690;2023-03-14T11:37:06;11.10;99.90
16140;DHT22;8175;49.326;12.690;2023-03-14T11:39:39;10.80;99.90
16140;DHT22;8175;49.326;12.690;2023-03-14T11:42:12;10.70;99.90
16140;DHT22;8175;49.326;12.690;2023-03-14T11:44:40;10.70;99.90
16140;DHT22;8175;49.326;12.690;2023-03-14T11:47:23;10.70;99.90
16140;DHT22;8175;49.326;12.690;2023-03-14T11:50:15;10.50;99.90
16140;DHT22;8175;49.326;12.690;2023-03-14T11:55:19;10.40;99.90
16140;DHT22;8175;49.326;12.690;2023-03-14T11:57:48;10.30;99.90
16140;DHT22;8175;49.326;12.690;2023-03-14T12:08:45;10.30;99.90
16140;DHT22;8175;49.326;12.690;2023-03-14T12:11:27;10.20;99.90
16140;DHT22;8175;49.326;12.690;2023-03-14T12:13:53;10.10;99.90
16140;DHT22;8175;49.326;12.690;2023-03-14T12:16:37;10.00;99.90
16140;DHT22;8175;49.326;12.690;2023-03-14T12:21:49;10.00;99.90
16140;DHT22;8175;49.326;12.690;2023-03-14T12:24:22;10.30;99.90
16140;DHT22;8175;49.326;12.690;2023-03-14T12:26:54;10.50;99.90
16140;DHT22;8175;49.326;12.690;2023-03-14T12:29:21;10.60;99.90
16140;DHT22;8175;49.326;12.690;2023-03-14T12:31:48;10.50;99.90
16140;DHT22;8175;49.326;12.690;2023-03-14T12:40:01;10.70;99.90
16140;DHT22;8175;49.326;12.690;2023-03-14T12:43:00;10.70;99.90
16140;DHT22;8175;49.326;12.690;2023-03-14T12:45:30;10.90;99.90
16140;DHT22;8175;49.326;12.690;2023-03-14T12:48:14;11.30;99.90
16140;DHT22;8175;49.326;12.690;2023-03-14T12:50:53;13.50;99.90
16140;DHT22;8175;49.326;12.690;2023-03-14T12:56:23;14.90;99.90
16140;DHT22;8175;49.326;12.690;2023-03-14T13:02:13;13.40;99.90
16140;DHT22;8175;49.326;12.690;2023-03-14T13:04:46;13.00;99.90
16140;DHT22;8175;49.326;12.690;2023-03-14T13:08:01;12.50;99.90
16140;DHT22;8175;49.326;12.690;2023-03-14T13:10:26;11.70;99.90
16140;DHT22;8175;49.326;12.690;2023-03-14T13:12:54;11.00;99.90
16140;DHT22;8175;49.326;12.690;2023-03-14T13:15:27;10.70;99.90
16140;DHT22;8175;49.326;12.690;2023-03-14T13:17:59;10.40;99.90
16140;DHT22;8175;49.326;12.690;2023-03-14T13:20:36;10.10;99.90
16140;DHT22;8175;49.326;12.690;2023-03-14T13:23:03;9.70;99.90
16140;DHT22;8175;49.326;12.690;2023-03-14T13:25:31;9.40;99.90
16140;DHT22;8175;49.326;12.690;2023-03-14T13:27:57;9.30;99.90
16140;DHT22;8175;49.326;12.690;2023-03-14T13:30:28;9.10;99.90
16140;DHT22;8175;49.326;12.690;2023-03-14T13:32:55;8.90;99.90
16140;DHT22;8175;49.326;12.690;2023-03-14T13:35:29;8.80;99.90
16140;DHT22;8175;49.326;12.690;2023-03-14T13:38:03;9.10;99.90
16140;DHT22;8175;49.326;12.690;2023-03-14T13:40:33;9.20;99.90
16140;DHT22;8175;49.326;12.690;2023-03-14T13:43:02;9.20;99.90
16140;DHT22;8175;49.326;12.690;2023-03-14T13:45:29;9.20;99.90
16140;DHT22;8175;49.326;12.690;2023-03-14T13:47:55;9.30;99.90
16140;DHT22;8175;49.326;12.690;2023-03-14T13:50:21;9.30;99.90
16140;DHT22;8175;49.326;12.690;2023-03-14T13:52:46;9.30;99.90
16140;DHT22;8175;49.326;12.690;2023-03-14T13:55:17;9.40;99.90
16140;DHT22;8175;49.326;12.690;2023-03-14T13:57:45;9.40;99.90
16140;DHT22;8175;49.326;12.690;2023-03-14T14:00:30;9.50;99.90
16140;DHT22;8175;49.326;12.690;2023-03-14T14:02:57;9.70;99.90
16140;DHT22;8175;49.326;12.690;2023-03-14T14:05:27;9.80;99.90
16140;DHT22;8175;49.326;12.690;2023-03-14T14:07:53;9.90;99.90
16140;DHT22;8175;49.326;12.690;2023-03-14T14:10:20;9.80;99.90
16140;DHT22;8175;49.326;12.690;2023-03-14T14:12:50;9.80;99.90
16140;DHT22;8175;49.326;12.690;2023-03-14T14:15:25;10.00;99.90
16140;DHT22;8175;49.326;12.690;2023-03-14T14:17:57;11.20;99.90
16140;DHT22;8175;49.326;12.690;2023-03-14T14:20:32;11.20;99.90
16140;DHT22;8175;49.326;12.690;2023-03-14T14:23:04;10.80;99.90
16140;DHT22;8175;49.326;12.690;2023-03-14T14:25:31;10.60;99.90
16140;DHT22;8175;49.326;12.690;2023-03-14T14:27:57;10.90;99.90
16140;DHT22;8175;49.326;12.690;2023-03-14T14:30:29;10.70;99.90
16140;DHT22;8175;49.326;12.690;2023-03-14T14:33:20;10.50;99.90
16140;DHT22;8175;49.326;12.690;2023-03-14T14:38:18;10.00;99.90
16140;DHT22;8175;49.326;12.690;2023-03-14T14:40:47;9.70;99.90
16140;DHT22;8175;49.326;12.690;2023-03-14T14:43:21;9.50;99.90
16140;DHT22;8175;49.326;12.690;2023-03-14T14:45:49;9.30;99.90
16140;DHT22;8175;49.326;12.690;2023-03-14T14:48:20;9.20;99.90
16140;DHT22;8175;49.326;12.690;2023-03-14T14:51:06;9.10;99.90
16140;DHT22;8175;49.326;12.690;2023-03-14T14:53:40;8.90;99.90
16140;DHT22;8175;49.326;12.690;2023-03-14T14:56:21;8.70;99.90
16140;DHT22;8175;49.326;12.690;2023-03-14T14:58:50;8.60;99.90
16140;DHT22;8175;49.326;12.690;2023-03-14T15:01:23;8.50;99.90
16140;DHT22;8175;49.326;12.690;2023-03-14T15:03:51;8.40;99.90
16140;DHT22;8175;49.326;12.690;2023-03-14T15:06:18;8.30;99.90
16140;DHT22;8175;49.326;12.690;2023-03-14T15:08:45;8.20;99.90
16140;DHT22;8175;49.326;12.690;2023-03-14T15:13:41;8.20;99.90
16140;DHT22;8175;49.326;12.690;2023-03-14T15:16:18;8.20;99.90
16140;DHT22;8175;49.326;12.690;2023-03-14T15:18:47;8.30;99.90
16140;DHT22;8175;49.326;12.690;2023-03-14T15:21:14;8.30;99.90
16140;DHT22;8175;49.326;12.690;2023-03-14T15:23:39;8.30;99.90
16140;DHT22;8175;49.326;12.690;2023-03-14T15:26:12;8.20;99.90
16140;DHT22;8175;49.326;12.690;2023-03-14T15:28:38;8.10;99.90
16140;DHT22;8175;49.326;12.690;2023-03-14T15:31:04;8.00;99.90
16140;DHT22;8175;49.326;12.690;2023-03-14T15:33:30;7.90;99.90
16140;DHT22;8175;49.326;12.690;2023-03-14T15:35:55;7.80;99.90
16140;DHT22;8175;49.326;12.690;2023-03-14T15:38:22;7.80;99.90
16140;DHT22;8175;49.326;12.690;2023-03-14T15:40:52;7.70;99.90
16140;DHT22;8175;49.326;12.690;2023-03-14T15:43:18;7.70;99.90
16140;DHT22;8175;49.326;12.690;2023-03-14T15:45:45;7.70;99.90
16140;DHT22;8175;49.326;12.690;2023-03-14T15:48:17;7.70;99.90
16140;DHT22;8175;49.326;12.690;2023-03-14T15:50:43;7.60;99.90
16140;DHT22;8175;49.326;12.690;2023-03-14T15:53:10;7.60;99.90
16140;DHT22;8175;49.326;12.690;2023-03-14T15:55:36;7.60;99.90
16140;DHT22;8175;49.326;12.690;2023-03-14T15:58:01;7.60;99.90
16140;DHT22;8175;49.326;12.690;2023-03-14T16:00:28;7.50;99.90
16140;DHT22;8175;49.326;12.690;2023-03-14T16:02:54;7.50;99.90
16140;DHT22;8175;49.326;12.690;2023-03-14T16:05:20;7.40;99.90
16140;DHT22;8175;49.326;12.690;2023-03-14T16:07:46;7.30;99.90
16140;DHT22;8175;49.326;12.690;2023-03-14T16:10:14;7.20;99.90
16140;DHT22;8175;49.326;12.690;2023-03-14T16:12:40;7.10;99.90
16140;DHT22;8175;49.326;12.690;2023-03-14T16:15:06;7.00;99.90
16140;DHT22;8175;49.326;12.690;2023-03-14T16:17:32;6.90;99.90
16140;DHT22;8175;49.326;12.690;2023-03-14T16:19:58;6.80;99.90
16140;DHT22;8175;49.326;12.690;2023-03-14T16:22:24;6.60;99.90
16140;DHT22;8175;49.326;12.690;2023-03-14T16:24:50;6.40;99.90
16140;DHT22;8175;49.326;12.690;2023-03-14T16:27:15;6.20;99.90
16140;DHT22;8175;49.326;12.690;2023-03-14T16:29:41;5.90;99.90
16140;DHT22;8175;49.326;12.690;2023-03-14T16:32:07;5.60;99.90
16140;DHT22;8175;49.326;12.690;2023-03-14T16:34:33;5.50;99.90
16140;DHT22;8175;49.326;12.690;2023-03-14T16:36:59;5.40;99.90
16140;DHT22;8175;49.326;12.690;2023-03-14T16:39:25;5.40;99.90
16140;DHT22;8175;49.326;12.690;2023-03-14T16:41:53;5.40;99.90
16140;DHT22;8175;49.326;12.690;2023-03-14T16:44:18;5.30;99.90
16140;DHT22;8175;49.326;12.690;2023-03-14T16:46:44;5.30;99.90
16140;DHT22;8175;49.326;12.690;2023-03-14T16:49:10;5.30;99.90
16140;DHT22;8175;49.326;12.690;2023-03-14T16:51:35;5.30;99.90
16140;DHT22;8175;49.326;12.690;2023-03-14T16:54:01;5.30;99.90
16140;DHT22;8175;49.326;12.690;2023-03-14T16:56:26;5.30;99.90
16140;DHT22;8175;49.326;12.690;2023-03-14T16:58:52;5.30;99.90